ISABELLA DAM (ISB)

Elevation: 2635' · KERN R basin · Operator: US Army Corps of Engineers

Provisional data, subject to change.
Query executed Friday at 17:16:16   clock

Select a sensor type for a plot of data.
Note: Reservoir Flows are daily averages.

Earlier

Date RES ELE    STORAGE    RES CHG    TOC STO    ABV TOC    OUTFLOW    INFLOW    FNF    PPT INC    TEMP MN    TEMP MX    WINDLEN    EVP PAN   
 FEET   AF   AF   AF   AF   CFS   CFS   CFS   INCHES   DEG F   DEG F   MILES   INCHES  
03/19/2014 2535.38 60182 -58 345600 -285418 251 241 241 0.00 44 74 -- 0.24
03/20/2014 2535.35 60095 -87 350900 -290805 251 219 219 0.00 44 75 -- 0.15
03/21/2014 2535.33 60037 -58 356200 -- 259 247 247 0.01 47 73 -- 0.21
03/22/2014 2535.30 59949 -88 361250 -301301 272 247 247 0.00 49 73 -- 0.24
03/23/2014 2535.25 59804 -145 361250 -301446 272 217 217 0.00 43 76 -- 0.22
03/24/2014 2535.23 59746 -58 361250 -301504 272 261 261 0.00 44 80 -- 0.22
03/25/2014 2535.18 59600 -146 361250 -301650 272 216 216 0.00 44 76 -- 0.21
03/26/2014 2535.16 59542 -58 361250 -301708 264 244 244 0.22 45 53 -- 0.11
03/27/2014 2535.19 59629 87 361250 -301621 251 301 301 0.02 46 53 -- 0.08
03/28/2014 2535.19 59629 0 361250 -301621 251 265 265 0.02 42 67 -- 0.17
03/29/2014 2535.18 59600 -29 361250 -301650 254 254 254 0.00 44 73 -- 0.18
03/30/2014 2535.20 59658 58 361250 -301592 241 284 284 0.39 41 58 -- 0.17
03/31/2014 2535.24 59775 117 361250 -301475 252 324 324 0.13 39 63 -- 0.16
04/01/2014 2535.24 59775 0 361250 -301475 278 288 288 0.23 39 53 -- 0.12
04/02/2014 2535.24 59775 0 361250 -301475 278 290 290 0.17 37 54 -- 0.15
04/03/2014 2535.23 59746 -29 361250 -301504 292 291 291 0.00 38 66 -- 0.17
04/04/2014 2535.18 59600 -146 361250 -301650 300 242 242 0.00 43 63 -- 0.19
04/05/2014 2535.17 59571 -29 361250 -301679 295 296 296 0.00 44 57 -- 0.19
04/06/2014 2535.14 59484 -87 361250 -301766 286 258 258 0.00 41 71 -- 0.19
04/07/2014 2535.13 59456 -28 361250 -301794 287 293 293 0.04 47 83 -- 0.24
04/08/2014 2535.13 59456 0 361250 -301794 287 306 306 0.00 49 86 -- 0.23
04/09/2014 2535.16 59542 86 361250 -301708 302 366 366 0.01 51 84 -- 0.25
04/10/2014 2535.18 59600 58 361250 -301650 321 373 373 0.00 52 86 -- 0.28
04/11/2014 2535.18 59600 0 361250 -301650 321 346 346 0.00 56 82 -- 0.31
04/12/2014 2535.23 59746 146 361250 -301504 321 419 419 0.00 57 75 -- 0.30
04/13/2014 2535.30 59949 203 361250 -301301 322 448 448 0.00 57 75 -- 0.29
04/14/2014 2535.37 60154 205 361250 -301096 322 447 447 0.00 53 82 -- 0.26
04/15/2014 2535.46 60416 262 361250 -300834 322 476 476 0.00 54 80 -- 0.27
04/16/2014 2535.55 60680 264 361250 -300570 322 482 482 0.01 56 80 -- 0.32
04/17/2014 2535.67 61033 353 361250 -300217 322 519 519 0.00 52 86 -- 0.23
04/18/2014 -- -- -- -- -- -- -- -- -- -- -- -- --

Later | Latest

Warning! This data is preliminary and subject to revision.

Download Data Now Download Data Now | Show ISB Map | Plot ISB Data | 1 Month ISB Data | Real-Time ISB Data | ISB Info